Time;durP1;ratioP1;P1;durP2;ratioP2;P2;SDS_P1;SDS_P2;PMS_P1;PMS_P2;Temp;Humidity;BMP_temperature;BMP_pressure;BME280_temperature;BME280_humidity;BME280_pressure;Samples;Min_cycle;Max_cycle;Signal;HPM_P1;HPM_P2
2023/01/14 00:00:15;;;;;;;2.40;1.50;;;;;;;4.14;100.00;99225.91;104882;1292;22657;-31
2023/01/14 00:02:40;;;;;;;2.90;1.40;;;;;;;4.18;100.00;99227.23;104867;1291;22669;-31
2023/01/14 00:05:06;;;;;;;3.60;2.20;;;;;;;4.16;100.00;99231.47;104912;1302;22786;-31
2023/01/14 00:07:32;;;;;;;1.90;1.00;;;;;;;4.02;100.00;99238.14;104825;1292;23034;-36
2023/01/14 00:09:57;;;;;;;10.10;2.50;;;;;;;-128.00;-1.00;-1.00;101194;1302;1004773;-35
2023/01/14 00:12:23;;;;;;;14.50;3.70;;;;;;;-128.00;-1.00;-1.00;101211;1302;1004309;-35
2023/01/14 00:14:48;;;;;;;12.30;2.40;;;;;;;-128.00;-1.00;-1.00;101220;1303;1005011;-35
2023/01/14 00:17:14;;;;;;;5.50;2.60;;;;;;;-128.00;-1.00;-1.00;101178;1303;1004528;-31
2023/01/14 00:19:40;;;;;;;6.30;3.70;;;;;;;-128.00;-1.00;-1.00;101218;1303;1004978;-34
2023/01/14 00:22:05;;;;;;;4.90;1.80;;;;;;;-128.00;-1.00;-1.00;101314;1302;1004282;-31
2023/01/14 00:24:31;;;;;;;7.80;2.00;;;;;;;-128.00;-1.00;-1.00;101097;1302;1004393;-30
2023/01/14 00:26:57;;;;;;;6.50;3.10;;;;;;;-128.00;-1.00;-1.00;101070;1303;1004167;-30
2023/01/14 00:29:29;;;;;;;5.80;2.50;;;;;;;-128.00;-1.00;-1.00;101204;1303;1004600;-30
2023/01/14 00:31:55;;;;;;;4.80;1.50;;;;;;;-128.00;-1.00;-1.00;101319;1303;1003718;-31
2023/01/14 00:34:21;;;;;;;3.10;1.10;;;;;;;-128.00;-1.00;-1.00;101330;1302;1003633;-34
2023/01/14 00:36:47;;;;;;;1.40;0.90;;;;;;;-128.00;-1.00;-1.00;101320;1302;1005461;-35
2023/01/14 00:39:13;;;;;;;3.50;1.80;;;;;;;-128.00;-1.00;-1.00;101315;1302;1005031;-35
2023/01/14 00:41:39;;;;;;;13.50;1.70;;;;;;;-128.00;-1.00;-1.00;101195;1302;1004988;-30
2023/01/14 00:44:05;;;;;;;7.00;1.80;;;;;;;-128.00;-1.00;-1.00;101221;1302;1004534;-31
2023/01/14 00:46:32;;;;;;;3.70;1.00;;;;;;;-128.00;-1.00;-1.00;101233;1302;1004115;-31
2023/01/14 00:48:58;;;;;;;5.00;1.20;;;;;;;-128.00;-1.00;-1.00;101268;1303;1004450;-36
2023/01/14 00:51:24;;;;;;;2.10;1.30;;;;;;;-128.00;-1.00;-1.00;101199;1303;1004625;-30
2023/01/14 00:53:50;;;;;;;2.10;1.10;;;;;;;-128.00;-1.00;-1.00;101150;1303;1005385;-30
2023/01/14 00:56:17;;;;;;;2.80;1.00;;;;;;;-128.00;-1.00;-1.00;101163;1303;1003476;-30
2023/01/14 00:58:42;;;;;;;2.50;1.00;;;;;;;-128.00;-1.00;-1.00;101338;1303;1004718;-31
2023/01/14 01:01:08;;;;;;;2.90;1.10;;;;;;;-128.00;-1.00;-1.00;101251;1303;1004898;-31
2023/01/14 01:03:37;;;;;;;3.30;1.20;;;;;;;-128.00;-1.00;-1.00;101290;1303;1004482;-34
2023/01/14 01:06:03;;;;;;;5.30;0.80;;;;;;;-128.00;-1.00;-1.00;101170;1303;1004187;-31
2023/01/14 01:08:29;;;;;;;5.80;1.00;;;;;;;-128.00;-1.00;-1.00;101291;1303;1004756;-31
2023/01/14 01:10:56;;;;;;;2.10;1.10;;;;;;;-128.00;-1.00;-1.00;101222;1303;1004664;-35
2023/01/14 01:13:22;;;;;;;5.50;1.00;;;;;;;-128.00;-1.00;-1.00;101216;1303;1004756;-32
2023/01/14 01:15:48;;;;;;;3.50;0.90;;;;;;;-128.00;-1.00;-1.00;101153;1303;1004278;-30
2023/01/14 01:18:14;;;;;;;4.00;1.30;;;;;;;-128.00;-1.00;-1.00;101116;1303;1004325;-34
2023/01/14 01:20:40;;;;;;;3.50;1.40;;;;;;;-128.00;-1.00;-1.00;101224;1303;1004783;-29
2023/01/14 01:23:08;;;;;;;4.00;1.10;;;;;;;-128.00;-1.00;-1.00;101228;1303;1004795;-31
2023/01/14 01:25:34;;;;;;;5.10;1.20;;;;;;;-128.00;-1.00;-1.00;101127;1303;1004506;-31
2023/01/14 01:28:00;;;;;;;2.40;1.20;;;;;;;-128.00;-1.00;-1.00;101202;1303;1005171;-34
2023/01/14 01:30:26;;;;;;;3.20;0.70;;;;;;;-128.00;-1.00;-1.00;101131;1303;1004688;-31
2023/01/14 01:32:52;;;;;;;6.20;0.90;;;;;;;-128.00;-1.00;-1.00;101129;1303;1004815;-31
2023/01/14 01:35:18;;;;;;;3.90;1.30;;;;;;;-128.00;-1.00;-1.00;101168;1303;1004317;-31
2023/01/14 01:37:43;;;;;;;7.10;1.60;;;;;;;-128.00;-1.00;-1.00;101155;1303;1005498;-35
2023/01/14 01:40:10;;;;;;;1.90;0.40;;;;;;;-128.00;-1.00;-1.00;101130;1303;1004817;-30
2023/01/14 01:42:35;;;;;;;0.90;0.60;;;;;;;-128.00;-1.00;-1.00;101147;1302;1004031;-31
2023/01/14 01:45:20;;;;;;;0.90;0.60;;;;;;;-128.00;-1.00;-1.00;101173;1303;1004663;-32
2023/01/14 01:47:46;;;;;;;4.30;0.90;;;;;;;-128.00;-1.00;-1.00;101383;1303;1005106;-30
2023/01/14 01:50:11;;;;;;;3.10;1.30;;;;;;;-128.00;-1.00;-1.00;101182;1303;1004220;-30
2023/01/14 01:52:37;;;;;;;12.10;1.50;;;;;;;-128.00;-1.00;-1.00;101156;1303;1004944;-30
2023/01/14 01:55:06;;;;;;;3.40;1.60;;;;;;;-128.00;-1.00;-1.00;101247;1303;1004444;-30
2023/01/14 01:57:32;;;;;;;3.60;0.90;;;;;;;-128.00;-1.00;-1.00;101181;1303;1005335;-35
2023/01/14 02:00:00;;;;;;;2.00;0.60;;;;;;;-128.00;-1.00;-1.00;101141;1303;1004756;-30
2023/01/14 02:02:26;;;;;;;1.80;0.80;;;;;;;-128.00;-1.00;-1.00;101029;1303;1004987;-30
2023/01/14 02:04:51;;;;;;;2.40;1.00;;;;;;;-128.00;-1.00;-1.00;101270;1303;1004546;-30
2023/01/14 02:07:20;;;;;;;5.30;1.10;;;;;;;-128.00;-1.00;-1.00;101201;1303;1004885;-34
2023/01/14 02:09:46;;;;;;;9.50;1.10;;;;;;;-128.00;-1.00;-1.00;101259;1303;1004013;-30
2023/01/14 02:12:31;;;;;;;10.80;1.60;;;;;;;-128.00;-1.00;-1.00;101188;1303;1004827;-31
2023/01/14 02:15:19;;;;;;;2.30;1.40;;;;;;;-128.00;-1.00;-1.00;101259;1303;1004540;-30
2023/01/14 02:18:14;;;;;;;1.40;0.50;;;;;;;-128.00;-1.00;-1.00;101182;1303;1004695;-30
2023/01/14 02:20:43;;;;;;;2.00;0.50;;;;;;;-128.00;-1.00;-1.00;101151;1303;1005284;-30
2023/01/14 02:23:30;;;;;;;9.00;1.10;;;;;;;-128.00;-1.00;-1.00;101272;1303;1004579;-33
2023/01/14 02:26:29;;;;;;;1.70;0.60;;;;;;;-128.00;-1.00;-1.00;101061;1303;1004208;-34
2023/01/14 02:29:10;;;;;;;5.00;1.10;;;;;;;-128.00;-1.00;-1.00;101235;1303;1005273;-30
2023/01/14 02:31:44;;;;;;;3.80;1.20;;;;;;;-128.00;-1.00;-1.00;101143;1303;1004215;-33
2023/01/14 02:34:18;;;;;;;2.00;1.00;;;;;;;-128.00;-1.00;-1.00;101124;1301;1004698;-36
2023/01/14 02:36:55;;;;;;;1.90;1.30;;;;;;;-128.00;-1.00;-1.00;101221;1303;1004774;-32
2023/01/14 02:39:27;;;;;;;2.10;0.60;;;;;;;-128.00;-1.00;-1.00;101299;1301;1004791;-33
2023/01/14 02:44:35;;;;;;;3.10;0.90;;;;;;;-128.00;-1.00;-1.00;101116;1300;1004325;-30
2023/01/14 02:47:17;;;;;;;2.30;0.90;;;;;;;-128.00;-1.00;-1.00;101173;1303;1004480;-30
2023/01/14 02:49:43;;;;;;;5.60;2.30;;;;;;;-128.00;-1.00;-1.00;101134;1303;1004195;-34
2023/01/14 02:52:11;;;;;;;4.80;1.60;;;;;;;-128.00;-1.00;-1.00;101314;1303;1004562;-30
2023/01/14 02:54:37;;;;;;;3.90;1.00;;;;;;;-128.00;-1.00;-1.00;101207;1303;1004348;-34
2023/01/14 02:57:22;;;;;;;6.00;1.00;;;;;;;-128.00;-1.00;-1.00;101187;1303;1004068;-30
2023/01/14 03:00:11;;;;;;;1.80;1.00;;;;;;;-128.00;-1.00;-1.00;101328;1303;1004401;-34
2023/01/14 03:02:52;;;;;;;1.50;0.80;;;;;;;-128.00;-1.00;-1.00;101304;1303;1003663;-30
2023/01/14 03:05:42;;;;;;;2.60;1.20;;;;;;;-128.00;-1.00;-1.00;101127;1303;1003854;-34
2023/01/14 03:08:26;;;;;;;2.30;0.70;;;;;;;-128.00;-1.00;-1.00;101167;1303;1004641;-34
2023/01/14 03:10:57;;;;;;;2.60;1.00;;;;;;;-128.00;-1.00;-1.00;101219;1300;1003634;-32
2023/01/14 03:13:30;;;;;;;1.20;0.80;;;;;;;-128.00;-1.00;-1.00;101311;1303;1004726;-30
2023/01/14 03:16:00;;;;;;;10.70;1.60;;;;;;;-128.00;-1.00;-1.00;101095;1303;1004698;-34
2023/01/14 03:18:32;;;;;;;3.00;0.80;;;;;;;-128.00;-1.00;-1.00;101140;1303;1004712;-30
2023/01/14 03:21:01;;;;;;;5.50;1.30;;;;;;;-128.00;-1.00;-1.00;101100;1303;1004664;-30
2023/01/14 03:23:27;;;;;;;4.60;1.20;;;;;;;-128.00;-1.00;-1.00;101166;1303;1005117;-30
2023/01/14 03:25:52;;;;;;;4.60;1.10;;;;;;;-128.00;-1.00;-1.00;101278;1303;1004741;-31
2023/01/14 03:28:21;;;;;;;8.00;1.40;;;;;;;-128.00;-1.00;-1.00;101098;1303;1004779;-34
2023/01/14 03:30:52;;;;;;;3.40;0.70;;;;;;;-128.00;-1.00;-1.00;101110;1303;1004294;-34
2023/01/14 03:33:23;;;;;;;1.90;0.80;;;;;;;-128.00;-1.00;-1.00;101167;1303;1004283;-30
2023/01/14 03:35:49;;;;;;;2.70;1.20;;;;;;;-128.00;-1.00;-1.00;101313;1303;1004700;-34
2023/01/14 03:38:35;;;;;;;12.70;0.90;;;;;;;-128.00;-1.00;-1.00;101103;1303;1004432;-31
2023/01/14 03:41:01;;;;;;;1.40;0.70;;;;;;;-128.00;-1.00;-1.00;101145;1303;1004983;-35
2023/01/14 03:43:39;;;;;;;1.40;1.00;;;;;;;-128.00;-1.00;-1.00;101170;1303;1004488;-33
2023/01/14 03:46:05;;;;;;;4.10;3.30;;;;;;;-128.00;-1.00;-1.00;101152;1303;1004637;-32
2023/01/14 03:48:30;;;;;;;2.00;0.90;;;;;;;-128.00;-1.00;-1.00;101235;1303;1004902;-30
2023/01/14 03:51:20;;;;;;;3.90;1.20;;;;;;;-128.00;-1.00;-1.00;101239;1303;1004993;-30
2023/01/14 03:54:01;;;;;;;2.40;1.40;;;;;;;-128.00;-1.00;-1.00;101156;1303;1003919;-30
2023/01/14 03:56:45;;;;;;;1.70;0.70;;;;;;;-128.00;-1.00;-1.00;101121;1303;1004755;-35
2023/01/14 03:59:13;;;;;;;9.80;1.30;;;;;;;-128.00;-1.00;-1.00;101156;1303;1004539;-30
2023/01/14 04:01:47;;;;;;;9.80;1.00;;;;;;;-128.00;-1.00;-1.00;101325;1295;1004719;-33
2023/01/14 04:04:13;;;;;;;4.50;1.40;;;;;;;-128.00;-1.00;-1.00;101208;1303;1005145;-30
2023/01/14 04:09:08;;;;;;;1.90;0.60;;;;;;;;;;104042;1302;545011;-33
2023/01/14 04:11:34;;;;;;;4.50;1.40;;;;;;;;;;103945;1308;22670;-30
2023/01/14 04:16:28;;;;;;;2.60;1.20;;;;;;;;;;104044;1311;24766;-33
2023/01/14 04:18:54;;;;;;;2.10;0.80;;;;;;;;;;104017;1311;22815;-34
2023/01/14 04:21:19;;;;;;;4.00;0.70;;;;;;;;;;103986;1311;22831;-35
2023/01/14 04:23:44;;;;;;;4.60;1.60;;;;;;;;;;103877;1301;469662;-35
2023/01/14 04:26:10;;;;;;;1.60;1.00;;;;;;;;;;104158;1298;24878;-34
2023/01/14 04:28:36;;;;;;;1.70;1.20;;;;;;;;;;104157;1298;23042;-30
2023/01/14 04:31:01;;;;;;;7.20;1.30;;;;;;;;;;104024;1297;22659;-30
2023/01/14 04:33:27;;;;;;;2.20;1.00;;;;;;;;;;104136;1295;23157;-30
2023/01/14 04:35:52;;;;;;;11.10;1.50;;;;;;;;;;104259;1298;22793;-35
2023/01/14 05:15:10;;;;;;;9.40;1.90;;;;;;;3.60;100.00;99439.46;104654;1296;557897;-34
2023/01/14 05:17:36;;;;;;;7.50;1.40;;;;;;;3.76;100.00;99442.63;104458;1302;213685;-30
2023/01/14 05:20:01;;;;;;;3.70;1.20;;;;;;;3.69;100.00;99445.27;104807;1303;22676;-35
2023/01/14 05:22:27;;;;;;;5.80;0.90;;;;;;;3.71;100.00;99447.05;104789;1292;23183;-35
2023/01/14 05:24:53;;;;;;;1.20;0.70;;;;;;;3.74;100.00;99453.52;104729;1292;23791;-30
2023/01/14 05:27:18;;;;;;;3.10;1.00;;;;;;;3.75;100.00;99456.44;104639;1303;22679;-34
2023/01/14 05:29:44;;;;;;;5.90;1.30;;;;;;;3.80;100.00;99455.76;104744;1292;22634;-34
2023/01/14 05:32:12;;;;;;;3.80;1.50;;;;;;;3.75;100.00;99457.30;104759;1292;22572;-31
2023/01/14 05:34:37;;;;;;;2.90;1.00;;;;;;;3.82;100.00;99456.59;104853;1301;22669;-31
2023/01/14 05:37:03;;;;;;;4.70;1.20;;;;;;;3.84;100.00;99459.92;104684;1292;22660;-35
2023/01/14 05:39:28;;;;;;;2.70;1.20;;;;;;;3.94;100.00;99458.39;104819;1299;23152;-35
2023/01/14 05:47:08;;;;;;;3.20;0.80;;;;;;;4.03;100.00;99473.33;104766;1301;22796;-34
2023/01/14 05:49:34;;;;;;;2.20;1.00;;;;;;;4.03;100.00;99477.91;104805;1292;22944;-29
2023/01/14 05:52:00;;;;;;;4.60;0.90;;;;;;;4.14;100.00;99477.13;104487;1303;22792;-31
2023/01/14 05:54:25;;;;;;;5.60;1.00;;;;;;;4.29;100.00;99481.52;104731;1303;22665;-34
2023/01/14 05:56:51;;;;;;;18.60;4.70;;;;;;;4.33;100.00;99486.38;104660;1303;22670;-29
2023/01/14 05:59:16;;;;;;;2.90;1.10;;;;;;;4.38;100.00;99491.90;104844;1301;23151;-34
2023/01/14 06:09:11;;;;;;;3.10;1.50;;;;;;;-48.54;59.60;59694.66;103243;1292;1002762;-33
2023/01/14 06:11:39;;;;;;;3.20;1.10;;;;;;;-128.00;-1.00;-1.00;101275;1303;1004503;-33
2023/01/14 06:14:05;;;;;;;3.90;1.10;;;;;;;-128.00;-1.00;-1.00;101318;1303;1004450;-30
2023/01/14 06:16:39;;;;;;;2.40;0.70;;;;;;;-128.00;-1.00;-1.00;101028;1303;1005184;-30
2023/01/14 06:19:08;;;;;;;4.30;1.50;;;;;;;-128.00;-1.00;-1.00;101202;1299;1004019;-34
2023/01/14 06:21:34;;;;;;;7.00;0.90;;;;;;;-128.00;-1.00;-1.00;101352;1303;1004478;-34
2023/01/14 06:23:59;;;;;;;4.30;1.00;;;;;;;-128.00;-1.00;-1.00;101037;1303;1004782;-30
2023/01/14 06:26:27;;;;;;;8.10;0.90;;;;;;;-128.00;-1.00;-1.00;101274;1303;1005059;-30
2023/01/14 06:28:57;;;;;;;9.70;1.00;;;;;;;-128.00;-1.00;-1.00;101211;1299;1004473;-33
2023/01/14 06:31:23;;;;;;;4.40;1.20;;;;;;;-128.00;-1.00;-1.00;101214;1303;1004199;-35
2023/01/14 06:33:49;;;;;;;2.70;1.30;;;;;;;-128.00;-1.00;-1.00;101105;1303;1005293;-34
2023/01/14 06:36:14;;;;;;;12.00;0.70;;;;;;;-128.00;-1.00;-1.00;100981;1303;1004127;-31
2023/01/14 06:38:40;;;;;;;1.40;0.70;;;;;;;-128.00;-1.00;-1.00;101336;1303;1004389;-30
2023/01/14 06:41:07;;;;;;;3.10;0.80;;;;;;;-128.00;-1.00;-1.00;101196;1303;1004082;-34
2023/01/14 06:43:33;;;;;;;2.00;0.70;;;;;;;-128.00;-1.00;-1.00;101108;1303;1004411;-35
2023/01/14 06:45:59;;;;;;;4.10;0.80;;;;;;;-128.00;-1.00;-1.00;101119;1303;1004532;-31
2023/01/14 06:48:25;;;;;;;2.60;0.60;;;;;;;-128.00;-1.00;-1.00;101208;1303;1004262;-29
2023/01/14 06:50:51;;;;;;;2.40;0.80;;;;;;;-128.00;-1.00;-1.00;101098;1303;1005110;-30
2023/01/14 06:53:17;;;;;;;0.30;0.30;;;;;;;-128.00;-1.00;-1.00;101212;1303;1004716;-30
2023/01/14 06:55:42;;;;;;;3.00;2.10;;;;;;;-128.00;-1.00;-1.00;101183;1303;1004040;-30
2023/01/14 06:58:08;;;;;;;2.70;0.70;;;;;;;-128.00;-1.00;-1.00;101155;1303;1004187;-34
2023/01/14 07:00:35;;;;;;;3.30;0.90;;;;;;;-128.00;-1.00;-1.00;101065;1304;1004340;-31
2023/01/14 07:03:00;;;;;;;8.20;2.30;;;;;;;-128.00;-1.00;-1.00;101102;1303;1005102;-33
2023/01/14 07:05:26;;;;;;;5.40;1.40;;;;;;;-128.00;-1.00;-1.00;101158;1303;1004659;-29
2023/01/14 07:07:52;;;;;;;3.20;1.00;;;;;;;-128.00;-1.00;-1.00;101205;1303;1004848;-33
2023/01/14 07:10:18;;;;;;;7.30;2.00;;;;;;;-128.00;-1.00;-1.00;101154;1303;1005292;-30
2023/01/14 07:12:48;;;;;;;11.80;1.60;;;;;;;-128.00;-1.00;-1.00;100978;1303;1004347;-33
2023/01/14 07:15:16;;;;;;;4.20;1.20;;;;;;;-128.00;-1.00;-1.00;100972;1303;1004624;-33
2023/01/14 07:17:42;;;;;;;9.30;4.40;;;;;;;-128.00;-1.00;-1.00;101206;1303;1004372;-35
2023/01/14 07:20:08;;;;;;;5.90;1.70;;;;;;;-128.00;-1.00;-1.00;101317;1301;1003839;-29
2023/01/14 07:22:34;;;;;;;11.70;1.90;;;;;;;-128.00;-1.00;-1.00;101157;1303;1005373;-34
2023/01/14 07:25:01;;;;;;;17.70;1.40;;;;;;;-128.00;-1.00;-1.00;100880;1303;1004694;-30
2023/01/14 07:27:28;;;;;;;2.30;0.70;;;;;;;-128.00;-1.00;-1.00;100985;1303;1004391;-33
2023/01/14 07:29:53;;;;;;;3.20;0.70;;;;;;;-128.00;-1.00;-1.00;101201;1303;1004596;-30
2023/01/14 07:32:19;;;;;;;19.70;3.50;;;;;;;-128.00;-1.00;-1.00;101329;1303;1004677;-30
2023/01/14 07:34:44;;;;;;;5.70;1.30;;;;;;;-128.00;-1.00;-1.00;101225;1303;1004560;-34
2023/01/14 07:37:11;;;;;;;9.90;3.60;;;;;;;-128.00;-1.00;-1.00;101177;1303;1005045;-33
2023/01/14 07:39:36;;;;;;;12.50;3.40;;;;;;;-128.00;-1.00;-1.00;101226;1303;1005652;-35
2023/01/14 07:42:02;;;;;;;6.80;2.20;;;;;;;-128.00;-1.00;-1.00;101173;1303;1004545;-35
2023/01/14 07:44:28;;;;;;;11.40;2.80;;;;;;;-128.00;-1.00;-1.00;101133;1303;1004857;-32
2023/01/14 07:46:54;;;;;;;1.50;1.10;;;;;;;-128.00;-1.00;-1.00;101155;1303;1004655;-30
2023/01/14 07:49:21;;;;;;;7.50;1.40;;;;;;;-128.00;-1.00;-1.00;101222;1303;1004161;-39
2023/01/14 07:51:47;;;;;;;2.80;1.10;;;;;;;-128.00;-1.00;-1.00;101167;1303;1004662;-35
2023/01/14 07:54:12;;;;;;;3.60;1.00;;;;;;;-128.00;-1.00;-1.00;101158;1303;1004712;-36
2023/01/14 07:56:38;;;;;;;2.60;1.30;;;;;;;-128.00;-1.00;-1.00;101143;1303;1004843;-29
2023/01/14 07:59:03;;;;;;;8.50;1.50;;;;;;;-128.00;-1.00;-1.00;101149;1303;1005129;-29
2023/01/14 08:01:29;;;;;;;5.90;1.50;;;;;;;-128.00;-1.00;-1.00;101188;1303;1004482;-29
2023/01/14 08:03:54;;;;;;;7.20;1.70;;;;;;;-128.00;-1.00;-1.00;101192;1303;1004354;-29
2023/01/14 08:06:20;;;;;;;2.00;1.00;;;;;;;-128.00;-1.00;-1.00;101101;1303;1005805;-33
2023/01/14 08:08:46;;;;;;;12.40;2.50;;;;;;;-128.00;-1.00;-1.00;101083;1303;1004372;-30
2023/01/14 08:11:11;;;;;;;8.70;1.60;;;;;;;-128.00;-1.00;-1.00;101129;1303;1005000;-30
2023/01/14 08:13:37;;;;;;;5.10;1.10;;;;;;;-128.00;-1.00;-1.00;101003;1303;1004165;-31
2023/01/14 08:16:03;;;;;;;7.60;1.90;;;;;;;-128.00;-1.00;-1.00;101083;1303;1006309;-34
2023/01/14 08:18:30;;;;;;;6.70;2.10;;;;;;;-128.00;-1.00;-1.00;101273;1303;1004634;-33
2023/01/14 08:20:57;;;;;;;5.20;1.30;;;;;;;-128.00;-1.00;-1.00;101102;1303;1004383;-33
2023/01/14 08:23:23;;;;;;;8.80;1.30;;;;;;;-128.00;-1.00;-1.00;101089;1301;1004438;-33
2023/01/14 08:25:49;;;;;;;3.70;1.20;;;;;;;-128.00;-1.00;-1.00;101179;1303;1004691;-33
2023/01/14 08:28:14;;;;;;;3.00;0.70;;;;;;;-128.00;-1.00;-1.00;101132;1303;1005145;-29
2023/01/14 08:30:40;;;;;;;10.00;1.40;;;;;;;-128.00;-1.00;-1.00;101110;1303;1004599;-33
2023/01/14 08:33:06;;;;;;;4.60;1.10;;;;;;;-128.00;-1.00;-1.00;101213;1303;1004881;-29
2023/01/14 08:35:31;;;;;;;7.60;2.50;;;;;;;-128.00;-1.00;-1.00;101110;1303;1003720;-34
2023/01/14 08:37:57;;;;;;;3.20;1.10;;;;;;;-128.00;-1.00;-1.00;101154;1303;1004520;-35
2023/01/14 08:40:23;;;;;;;3.40;1.20;;;;;;;-128.00;-1.00;-1.00;101264;1303;1004695;-30
2023/01/14 08:42:48;;;;;;;3.80;1.50;;;;;;;-128.00;-1.00;-1.00;101134;1303;1004969;-34
2023/01/14 08:45:14;;;;;;;15.10;2.60;;;;;;;-128.00;-1.00;-1.00;101131;1303;1003646;-34
2023/01/14 08:47:39;;;;;;;5.80;2.00;;;;;;;-128.00;-1.00;-1.00;101163;1303;1005393;-32
2023/01/14 08:50:05;;;;;;;4.10;1.50;;;;;;;-128.00;-1.00;-1.00;101262;1303;1004803;-31
2023/01/14 08:52:31;;;;;;;4.60;0.50;;;;;;;-128.00;-1.00;-1.00;101224;1303;1004582;-30
2023/01/14 08:54:57;;;;;;;3.10;0.80;;;;;;;-128.00;-1.00;-1.00;101072;1303;1004238;-35
2023/01/14 08:57:22;;;;;;;8.50;1.00;;;;;;;-128.00;-1.00;-1.00;101133;1303;1004571;-34
2023/01/14 08:59:48;;;;;;;4.50;1.20;;;;;;;-128.00;-1.00;-1.00;101135;1303;1004152;-31
2023/01/14 09:02:14;;;;;;;4.90;1.20;;;;;;;-128.00;-1.00;-1.00;101157;1303;1004706;-34
2023/01/14 09:04:40;;;;;;;3.20;1.10;;;;;;;-128.00;-1.00;-1.00;101033;1303;1004849;-31
2023/01/14 09:17:05;;;;;;;2.80;1.20;;;;;;;-128.00;-1.00;-1.00;101142;1303;1004294;-31
2023/01/14 09:19:32;;;;;;;7.20;1.90;;;;;;;-128.00;-1.00;-1.00;100970;1303;1004053;-31
2023/01/14 09:21:58;;;;;;;1.50;0.70;;;;;;;-128.00;-1.00;-1.00;101174;1303;1004620;-31
2023/01/14 09:24:24;;;;;;;4.00;1.20;;;;;;;-128.00;-1.00;-1.00;101138;1303;1005151;-35
2023/01/14 09:26:50;;;;;;;0.80;0.40;;;;;;;-128.00;-1.00;-1.00;101233;1303;1004754;-35
2023/01/14 09:29:16;;;;;;;2.00;0.90;;;;;;;-128.00;-1.00;-1.00;101206;1303;1004634;-33
2023/01/14 09:31:41;;;;;;;5.60;1.20;;;;;;;-128.00;-1.00;-1.00;101133;1303;1004721;-35
2023/01/14 09:34:07;;;;;;;1.10;0.70;;;;;;;-128.00;-1.00;-1.00;101207;1303;1004606;-32
2023/01/14 09:36:32;;;;;;;6.50;1.30;;;;;;;-128.00;-1.00;-1.00;101184;1303;1004304;-36
2023/01/14 09:38:58;;;;;;;5.10;0.80;;;;;;;-128.00;-1.00;-1.00;101179;1303;1004979;-35
2023/01/14 09:41:29;;;;;;;3.20;0.70;;;;;;;-128.00;-1.00;-1.00;101118;1303;1004831;-31
2023/01/14 09:43:55;;;;;;;6.60;1.50;;;;;;;-128.00;-1.00;-1.00;101193;1303;1004585;-36
2023/01/14 09:46:23;;;;;;;3.80;1.30;;;;;;;-128.00;-1.00;-1.00;101084;1303;1004507;-31
2023/01/14 09:48:48;;;;;;;2.90;1.40;;;;;;;-128.00;-1.00;-1.00;101215;1303;1004311;-36
2023/01/14 09:51:34;;;;;;;4.20;1.40;;;;;;;-128.00;-1.00;-1.00;101155;1303;1004899;-35
2023/01/14 09:54:18;;;;;;;1.80;0.90;;;;;;;-128.00;-1.00;-1.00;101100;1303;1004599;-35
2023/01/14 09:56:48;;;;;;;3.80;1.30;;;;;;;-128.00;-1.00;-1.00;101265;1303;1004639;-35
2023/01/14 09:59:30;;;;;;;3.20;0.70;;;;;;;-128.00;-1.00;-1.00;101223;1303;1005310;-34
2023/01/14 10:02:00;;;;;;;2.40;1.00;;;;;;;-128.00;-1.00;-1.00;101050;1301;1004557;-35
2023/01/14 10:04:48;;;;;;;8.10;0.80;;;;;;;-128.00;-1.00;-1.00;101229;1303;1004266;-35
2023/01/14 10:07:14;;;;;;;4.90;0.40;;;;;;;-128.00;-1.00;-1.00;101185;1303;1004014;-31
2023/01/14 10:09:43;;;;;;;5.20;1.40;;;;;;;-128.00;-1.00;-1.00;100915;1303;1003484;-31
2023/01/14 10:12:14;;;;;;;7.60;1.60;;;;;;;-128.00;-1.00;-1.00;101164;1303;1004047;-31
2023/01/14 10:14:43;;;;;;;2.50;1.00;;;;;;;-128.00;-1.00;-1.00;101105;1303;1004719;-31
2023/01/14 10:17:11;;;;;;;4.70;1.30;;;;;;;-128.00;-1.00;-1.00;101052;1303;1003979;-32
2023/01/14 10:19:43;;;;;;;3.90;0.60;;;;;;;-128.00;-1.00;-1.00;101137;1303;1004247;-31
2023/01/14 10:22:27;;;;;;;1.10;0.60;;;;;;;-128.00;-1.00;-1.00;101223;1303;1004596;-31
2023/01/14 10:24:53;;;;;;;6.00;1.10;;;;;;;-128.00;-1.00;-1.00;101217;1303;1005397;-32
2023/01/14 10:27:19;;;;;;;4.30;1.80;;;;;;;-128.00;-1.00;-1.00;101196;1303;1005454;-31
2023/01/14 10:29:46;;;;;;;2.10;0.70;;;;;;;-128.00;-1.00;-1.00;101220;1303;1004054;-35
2023/01/14 10:32:13;;;;;;;1.70;0.50;;;;;;;-128.00;-1.00;-1.00;101066;1303;1004443;-35
2023/01/14 10:34:40;;;;;;;1.50;0.60;;;;;;;-128.00;-1.00;-1.00;101110;1303;1004335;-35
2023/01/14 10:37:06;;;;;;;1.00;0.30;;;;;;;-128.00;-1.00;-1.00;101097;1303;1004568;-35
2023/01/14 10:39:32;;;;;;;2.90;1.90;;;;;;;-128.00;-1.00;-1.00;101268;1301;1004290;-31
2023/01/14 10:42:00;;;;;;;2.80;1.20;;;;;;;-128.00;-1.00;-1.00;101069;1303;1003676;-32
2023/01/14 10:44:30;;;;;;;8.10;2.30;;;;;;;-128.00;-1.00;-1.00;101188;1303;1004050;-33
2023/01/14 10:46:57;;;;;;;5.80;2.30;;;;;;;-128.00;-1.00;-1.00;101201;1303;1004867;-36
2023/01/14 10:49:37;;;;;;;1.70;0.80;;;;;;;-128.00;-1.00;-1.00;101147;1303;1004165;-35
2023/01/14 10:52:30;;;;;;;2.00;0.80;;;;;;;-128.00;-1.00;-1.00;101245;1303;1005346;-36
2023/01/14 10:54:58;;;;;;;5.70;1.10;;;;;;;-128.00;-1.00;-1.00;101020;1303;1004110;-36
2023/01/14 10:57:23;;;;;;;3.30;1.00;;;;;;;-128.00;-1.00;-1.00;101191;1303;1004792;-32
2023/01/14 10:59:50;;;;;;;1.10;0.50;;;;;;;-128.00;-1.00;-1.00;101279;1303;1004360;-36
2023/01/14 11:02:36;;;;;;;2.20;1.10;;;;;;;-128.00;-1.00;-1.00;101042;1303;1004377;-32
2023/01/14 11:47:12;;;;;;;1.80;0.70;;;;;;;10.87;63.72;99507.14;104196;1299;557840;-31
2023/01/14 11:49:38;;;;;;;4.70;1.80;;;;;;;10.86;62.78;99503.04;104089;1304;393079;-34
2023/01/14 11:52:05;;;;;;;2.90;0.70;;;;;;;10.88;61.71;99494.34;104568;1304;22818;-32
2023/01/14 11:54:37;;;;;;;6.10;0.70;;;;;;;11.17;60.24;99487.63;104562;1301;22824;-31
2023/01/14 11:57:03;;;;;;;3.10;0.60;;;;;;;11.22;59.61;99481.40;104645;1301;22667;-32
2023/01/14 11:59:31;;;;;;;2.00;0.50;;;;;;;11.02;60.48;99485.58;104520;1302;22654;-35
2023/01/14 12:02:03;;;;;;;2.50;0.60;;;;;;;11.19;59.66;99480.71;104582;1292;22831;-32
2023/01/14 12:04:40;;;;;;;4.50;0.60;;;;;;;10.95;59.91;99482.77;104552;1294;24425;-35
2023/01/14 12:07:07;;;;;;;4.80;0.70;;;;;;;10.88;62.04;99482.23;104668;1302;23157;-35
2023/01/14 12:09:47;;;;;;;3.80;0.50;;;;;;;11.12;61.40;99478.70;104432;1304;23037;-36
2023/01/14 12:12:31;;;;;;;4.30;1.10;;;;;;;11.32;59.15;99478.11;104568;1294;22559;-32
2023/01/14 12:17:50;;;;;;;2.80;0.70;;;;;;;11.21;59.20;99485.33;104527;1302;23048;-32
2023/01/14 12:20:18;;;;;;;7.70;0.90;;;;;;;11.10;57.87;99478.86;104650;1292;24261;-32
2023/01/14 12:23:02;;;;;;;3.60;0.90;;;;;;;10.74;59.02;99476.52;104461;1289;22679;-36
2023/01/14 12:25:30;;;;;;;3.80;0.70;;;;;;;10.99;58.43;99470.60;104584;1293;25384;-31
2023/01/14 12:28:04;;;;;;;1.50;0.60;;;;;;;10.57;59.58;99467.83;104522;1304;22748;-31
2023/01/14 12:30:40;;;;;;;3.60;0.90;;;;;;;10.73;59.27;99466.67;104655;1294;22758;-31
2023/01/14 12:33:25;;;;;;;2.50;0.90;;;;;;;10.95;59.59;99467.27;104527;1304;22670;-32
2023/01/14 12:36:08;;;;;;;1.80;0.40;;;;;;;11.11;59.91;99460.71;104597;1295;22566;-32
2023/01/14 12:46:12;;;;;;;2.80;0.90;;;;;;;10.97;61.11;99456.28;104721;1293;23471;-32
2023/01/14 12:48:37;;;;;;;3.10;0.60;;;;;;;10.83;61.05;99451.52;104567;1304;22554;-35
2023/01/14 12:51:10;;;;;;;1.00;0.50;;;;;;;10.53;60.32;99453.91;104589;1290;22587;-36
2023/01/14 12:53:47;;;;;;;1.30;0.50;;;;;;;10.32;60.21;99450.92;104461;1301;22566;-31
2023/01/14 12:56:25;;;;;;;4.50;1.40;;;;;;;10.52;60.39;99453.48;104410;1304;25371;-32
2023/01/14 12:58:56;;;;;;;2.70;0.80;;;;;;;10.42;61.37;99459.37;104534;1294;25400;-36
2023/01/14 13:01:23;;;;;;;1.60;0.20;;;;;;;10.86;59.84;99459.10;104428;1291;22898;-36
2023/01/14 13:03:52;;;;;;;6.60;0.60;;;;;;;10.66;60.32;99456.00;104435;1301;22569;-35
2023/01/14 13:06:26;;;;;;;5.80;0.60;;;;;;;10.66;59.10;99450.14;104622;1293;22559;-32
2023/01/14 13:08:54;;;;;;;0.80;0.30;;;;;;;10.61;59.44;99451.38;104484;1304;22567;-36
2023/01/14 13:11:22;;;;;;;1.30;0.50;;;;;;;10.55;60.52;99450.67;104485;1294;24312;-36
2023/01/14 13:13:51;;;;;;;4.80;1.60;;;;;;;10.37;59.93;99447.66;104645;1301;22793;-32
2023/01/14 13:16:34;;;;;;;3.00;0.40;;;;;;;10.35;60.96;99441.52;104530;1302;24266;-35
2023/01/14 13:19:01;;;;;;;2.70;0.80;;;;;;;10.23;61.29;99433.73;104597;1294;23039;-32
2023/01/14 13:21:51;;;;;;;0.90;0.50;;;;;;;10.16;60.98;99434.21;104497;1305;22809;-35
2023/01/14 13:24:36;;;;;;;4.50;0.90;;;;;;;10.08;60.66;99437.52;104496;1291;23034;-36
2023/01/14 13:27:24;;;;;;;1.90;0.60;;;;;;;9.48;62.60;99440.29;104548;1303;23265;-35
2023/01/14 13:29:50;;;;;;;1.90;0.80;;;;;;;9.04;65.13;99441.09;104593;1305;23044;-35
2023/01/14 13:32:39;;;;;;;3.80;1.00;;;;;;;8.91;66.42;99438.81;104432;1294;22586;-31